sensor_id;sensor_type;location;lat;lon;timestamp;P1;durP1;ratioP1;P2;durP2;ratioP2
41629;SDS011;27322;49.488;8.480;2024-01-07T00:01:49;12.35;;;5.60;;
41629;SDS011;27322;49.488;8.480;2024-01-07T00:04:15;14.35;;;6.20;;
41629;SDS011;27322;49.488;8.480;2024-01-07T00:06:41;13.63;;;6.32;;
41629;SDS011;27322;49.488;8.480;2024-01-07T00:09:07;11.80;;;5.55;;
41629;SDS011;27322;49.488;8.480;2024-01-07T00:11:32;13.60;;;6.18;;
41629;SDS011;27322;49.488;8.480;2024-01-07T00:13:58;9.93;;;5.07;;
41629;SDS011;27322;49.488;8.480;2024-01-07T00:16:23;13.52;;;6.65;;
41629;SDS011;27322;49.488;8.480;2024-01-07T00:18:49;13.48;;;5.93;;
41629;SDS011;27322;49.488;8.480;2024-01-07T00:21:14;13.00;;;6.03;;
41629;SDS011;27322;49.488;8.480;2024-01-07T00:23:40;12.77;;;5.85;;
41629;SDS011;27322;49.488;8.480;2024-01-07T00:26:06;12.68;;;6.28;;
41629;SDS011;27322;49.488;8.480;2024-01-07T00:28:32;13.50;;;5.97;;
41629;SDS011;27322;49.488;8.480;2024-01-07T00:30:57;13.75;;;5.75;;
41629;SDS011;27322;49.488;8.480;2024-01-07T00:33:23;13.02;;;5.78;;
41629;SDS011;27322;49.488;8.480;2024-01-07T00:35:48;12.05;;;5.40;;
41629;SDS011;27322;49.488;8.480;2024-01-07T00:38:14;12.55;;;5.18;;
41629;SDS011;27322;49.488;8.480;2024-01-07T00:40:39;11.88;;;5.18;;
41629;SDS011;27322;49.488;8.480;2024-01-07T00:43:05;11.98;;;5.32;;
41629;SDS011;27322;49.488;8.480;2024-01-07T00:45:31;10.75;;;4.85;;
41629;SDS011;27322;49.488;8.480;2024-01-07T00:47:56;10.95;;;4.53;;
41629;SDS011;27322;49.488;8.480;2024-01-07T00:50:22;11.38;;;5.28;;
41629;SDS011;27322;49.488;8.480;2024-01-07T00:52:47;10.15;;;4.30;;
41629;SDS011;27322;49.488;8.480;2024-01-07T00:55:13;9.80;;;4.18;;
41629;SDS011;27322;49.488;8.480;2024-01-07T00:57:38;12.43;;;4.88;;
41629;SDS011;27322;49.488;8.480;2024-01-07T01:00:05;12.43;;;4.20;;
41629;SDS011;27322;49.488;8.480;2024-01-07T01:02:31;11.25;;;4.22;;
41629;SDS011;27322;49.488;8.480;2024-01-07T01:04:57;9.10;;;3.88;;
41629;SDS011;27322;49.488;8.480;2024-01-07T01:07:23;9.50;;;3.40;;
41629;SDS011;27322;49.488;8.480;2024-01-07T01:09:48;8.65;;;3.53;;
41629;SDS011;27322;49.488;8.480;2024-01-07T01:12:14;8.95;;;4.05;;
41629;SDS011;27322;49.488;8.480;2024-01-07T01:14:40;9.68;;;4.00;;
41629;SDS011;27322;49.488;8.480;2024-01-07T01:17:06;9.13;;;4.13;;
41629;SDS011;27322;49.488;8.480;2024-01-07T01:19:32;8.38;;;3.50;;
41629;SDS011;27322;49.488;8.480;2024-01-07T01:21:57;8.63;;;3.67;;
41629;SDS011;27322;49.488;8.480;2024-01-07T01:24:23;7.65;;;3.30;;
41629;SDS011;27322;49.488;8.480;2024-01-07T01:26:48;9.40;;;3.58;;
41629;SDS011;27322;49.488;8.480;2024-01-07T01:29:14;8.10;;;3.38;;
41629;SDS011;27322;49.488;8.480;2024-01-07T01:31:39;7.45;;;3.35;;
41629;SDS011;27322;49.488;8.480;2024-01-07T01:34:05;8.52;;;2.95;;
41629;SDS011;27322;49.488;8.480;2024-01-07T01:36:31;8.55;;;3.60;;
41629;SDS011;27322;49.488;8.480;2024-01-07T01:38:57;8.40;;;3.35;;
41629;SDS011;27322;49.488;8.480;2024-01-07T01:41:22;9.23;;;3.70;;
41629;SDS011;27322;49.488;8.480;2024-01-07T01:43:48;8.40;;;3.60;;
41629;SDS011;27322;49.488;8.480;2024-01-07T01:46:13;8.32;;;3.47;;
41629;SDS011;27322;49.488;8.480;2024-01-07T01:48:39;6.80;;;3.30;;
41629;SDS011;27322;49.488;8.480;2024-01-07T01:51:06;9.10;;;3.47;;
41629;SDS011;27322;49.488;8.480;2024-01-07T01:53:32;8.10;;;2.92;;
41629;SDS011;27322;49.488;8.480;2024-01-07T01:55:58;7.40;;;3.03;;
41629;SDS011;27322;49.488;8.480;2024-01-07T01:58:27;7.75;;;2.95;;
41629;SDS011;27322;49.488;8.480;2024-01-07T02:00:53;8.20;;;2.78;;
41629;SDS011;27322;49.488;8.480;2024-01-07T02:03:19;6.70;;;2.63;;
41629;SDS011;27322;49.488;8.480;2024-01-07T02:05:45;5.85;;;2.65;;
41629;SDS011;27322;49.488;8.480;2024-01-07T02:08:13;6.63;;;3.00;;
41629;SDS011;27322;49.488;8.480;2024-01-07T02:10:38;8.02;;;2.90;;
41629;SDS011;27322;49.488;8.480;2024-01-07T02:13:04;6.85;;;2.90;;
41629;SDS011;27322;49.488;8.480;2024-01-07T02:15:30;7.10;;;2.65;;
41629;SDS011;27322;49.488;8.480;2024-01-07T02:17:56;6.97;;;2.60;;
41629;SDS011;27322;49.488;8.480;2024-01-07T02:20:22;6.28;;;2.55;;
41629;SDS011;27322;49.488;8.480;2024-01-07T02:22:48;6.45;;;2.70;;
41629;SDS011;27322;49.488;8.480;2024-01-07T02:25:13;5.85;;;2.45;;
41629;SDS011;27322;49.488;8.480;2024-01-07T02:27:39;7.00;;;2.95;;
41629;SDS011;27322;49.488;8.480;2024-01-07T02:30:04;5.55;;;2.42;;
41629;SDS011;27322;49.488;8.480;2024-01-07T02:32:30;6.60;;;2.30;;
41629;SDS011;27322;49.488;8.480;2024-01-07T02:34:59;5.25;;;2.25;;
41629;SDS011;27322;49.488;8.480;2024-01-07T02:37:25;6.65;;;2.70;;
41629;SDS011;27322;49.488;8.480;2024-01-07T02:39:50;7.68;;;2.63;;
41629;SDS011;27322;49.488;8.480;2024-01-07T02:42:16;6.78;;;2.80;;
41629;SDS011;27322;49.488;8.480;2024-01-07T02:44:41;6.00;;;2.55;;
41629;SDS011;27322;49.488;8.480;2024-01-07T02:47:07;6.20;;;2.38;;
41629;SDS011;27322;49.488;8.480;2024-01-07T02:49:33;7.00;;;3.00;;
41629;SDS011;27322;49.488;8.480;2024-01-07T02:51:58;7.40;;;3.03;;
41629;SDS011;27322;49.488;8.480;2024-01-07T02:54:24;5.90;;;2.38;;
41629;SDS011;27322;49.488;8.480;2024-01-07T02:56:49;7.38;;;2.58;;
41629;SDS011;27322;49.488;8.480;2024-01-07T02:59:15;6.43;;;2.92;;
41629;SDS011;27322;49.488;8.480;2024-01-07T03:01:41;6.40;;;3.05;;
41629;SDS011;27322;49.488;8.480;2024-01-07T03:04:07;7.07;;;3.00;;
41629;SDS011;27322;49.488;8.480;2024-01-07T03:06:38;6.78;;;3.08;;
41629;SDS011;27322;49.488;8.480;2024-01-07T03:09:03;7.65;;;2.92;;
41629;SDS011;27322;49.488;8.480;2024-01-07T03:11:29;7.00;;;3.03;;
41629;SDS011;27322;49.488;8.480;2024-01-07T03:13:55;9.10;;;3.45;;
41629;SDS011;27322;49.488;8.480;2024-01-07T03:16:21;6.72;;;3.03;;
41629;SDS011;27322;49.488;8.480;2024-01-07T03:18:48;6.32;;;3.03;;
41629;SDS011;27322;49.488;8.480;2024-01-07T03:21:20;6.40;;;2.95;;
41629;SDS011;27322;49.488;8.480;2024-01-07T03:23:47;8.70;;;3.55;;
41629;SDS011;27322;49.488;8.480;2024-01-07T03:26:13;7.20;;;3.72;;
41629;SDS011;27322;49.488;8.480;2024-01-07T03:28:39;6.78;;;3.15;;
41629;SDS011;27322;49.488;8.480;2024-01-07T03:31:07;7.80;;;3.58;;
41629;SDS011;27322;49.488;8.480;2024-01-07T03:33:34;7.45;;;3.17;;
41629;SDS011;27322;49.488;8.480;2024-01-07T03:35:59;8.20;;;3.65;;
41629;SDS011;27322;49.488;8.480;2024-01-07T03:38:25;7.30;;;3.40;;
41629;SDS011;27322;49.488;8.480;2024-01-07T03:40:51;7.70;;;3.63;;
41629;SDS011;27322;49.488;8.480;2024-01-07T03:43:16;7.40;;;3.38;;
41629;SDS011;27322;49.488;8.480;2024-01-07T03:45:42;11.82;;;4.00;;
41629;SDS011;27322;49.488;8.480;2024-01-07T03:48:08;8.10;;;3.80;;
41629;SDS011;27322;49.488;8.480;2024-01-07T03:50:34;8.77;;;3.55;;
41629;SDS011;27322;49.488;8.480;2024-01-07T03:52:59;8.68;;;3.90;;
41629;SDS011;27322;49.488;8.480;2024-01-07T03:55:25;7.45;;;3.80;;
41629;SDS011;27322;49.488;8.480;2024-01-07T03:57:51;6.55;;;3.40;;
41629;SDS011;27322;49.488;8.480;2024-01-07T04:00:16;7.75;;;3.20;;
41629;SDS011;27322;49.488;8.480;2024-01-07T04:02:42;7.40;;;3.28;;
41629;SDS011;27322;49.488;8.480;2024-01-07T04:05:08;9.68;;;3.40;;
41629;SDS011;27322;49.488;8.480;2024-01-07T04:07:34;8.52;;;3.70;;
41629;SDS011;27322;49.488;8.480;2024-01-07T04:10:00;8.20;;;3.47;;
41629;SDS011;27322;49.488;8.480;2024-01-07T04:12:25;6.88;;;3.20;;
41629;SDS011;27322;49.488;8.480;2024-01-07T04:14:51;5.90;;;3.00;;
41629;SDS011;27322;49.488;8.480;2024-01-07T04:17:16;7.68;;;3.00;;
41629;SDS011;27322;49.488;8.480;2024-01-07T04:19:42;6.57;;;3.15;;
41629;SDS011;27322;49.488;8.480;2024-01-07T04:22:08;6.65;;;3.10;;
41629;SDS011;27322;49.488;8.480;2024-01-07T04:24:33;8.07;;;3.80;;
41629;SDS011;27322;49.488;8.480;2024-01-07T04:26:59;7.25;;;3.28;;
41629;SDS011;27322;49.488;8.480;2024-01-07T04:29:24;6.72;;;3.20;;
41629;SDS011;27322;49.488;8.480;2024-01-07T04:31:50;6.25;;;3.03;;
41629;SDS011;27322;49.488;8.480;2024-01-07T04:34:15;8.15;;;3.40;;
41629;SDS011;27322;49.488;8.480;2024-01-07T04:36:41;7.28;;;3.60;;
41629;SDS011;27322;49.488;8.480;2024-01-07T04:39:06;8.20;;;3.47;;
41629;SDS011;27322;49.488;8.480;2024-01-07T04:41:32;6.90;;;3.13;;
41629;SDS011;27322;49.488;8.480;2024-01-07T04:43:58;7.43;;;3.50;;
41629;SDS011;27322;49.488;8.480;2024-01-07T04:46:23;8.18;;;3.38;;
41629;SDS011;27322;49.488;8.480;2024-01-07T04:48:49;7.32;;;3.45;;
41629;SDS011;27322;49.488;8.480;2024-01-07T04:51:14;6.95;;;3.17;;
41629;SDS011;27322;49.488;8.480;2024-01-07T04:53:40;7.32;;;3.20;;
41629;SDS011;27322;49.488;8.480;2024-01-07T04:56:05;5.90;;;2.55;;
41629;SDS011;27322;49.488;8.480;2024-01-07T04:58:31;4.88;;;2.28;;
41629;SDS011;27322;49.488;8.480;2024-01-07T05:00:57;5.63;;;2.90;;
41629;SDS011;27322;49.488;8.480;2024-01-07T05:03:22;5.07;;;2.33;;
41629;SDS011;27322;49.488;8.480;2024-01-07T05:05:48;5.93;;;2.90;;
41629;SDS011;27322;49.488;8.480;2024-01-07T05:08:13;5.25;;;2.28;;
41629;SDS011;27322;49.488;8.480;2024-01-07T05:10:39;6.10;;;2.50;;
41629;SDS011;27322;49.488;8.480;2024-01-07T05:13:04;5.65;;;2.63;;
41629;SDS011;27322;49.488;8.480;2024-01-07T05:15:31;6.43;;;3.03;;
41629;SDS011;27322;49.488;8.480;2024-01-07T05:17:57;6.13;;;2.70;;
41629;SDS011;27322;49.488;8.480;2024-01-07T05:20:22;5.90;;;2.70;;
41629;SDS011;27322;49.488;8.480;2024-01-07T05:22:48;6.63;;;2.80;;
41629;SDS011;27322;49.488;8.480;2024-01-07T05:25:14;7.80;;;3.00;;
41629;SDS011;27322;49.488;8.480;2024-01-07T05:27:39;6.53;;;2.75;;
41629;SDS011;27322;49.488;8.480;2024-01-07T05:30:05;6.93;;;3.03;;
41629;SDS011;27322;49.488;8.480;2024-01-07T05:32:32;6.22;;;2.78;;
41629;SDS011;27322;49.488;8.480;2024-01-07T05:34:58;6.57;;;2.83;;
41629;SDS011;27322;49.488;8.480;2024-01-07T05:37:23;7.15;;;2.95;;
41629;SDS011;27322;49.488;8.480;2024-01-07T05:39:49;6.60;;;3.08;;
41629;SDS011;27322;49.488;8.480;2024-01-07T05:42:14;5.68;;;2.55;;
41629;SDS011;27322;49.488;8.480;2024-01-07T05:44:40;6.97;;;2.65;;
41629;SDS011;27322;49.488;8.480;2024-01-07T05:47:05;5.80;;;2.70;;
41629;SDS011;27322;49.488;8.480;2024-01-07T05:49:31;6.32;;;2.55;;
41629;SDS011;27322;49.488;8.480;2024-01-07T05:51:57;5.53;;;2.45;;
41629;SDS011;27322;49.488;8.480;2024-01-07T05:54:23;8.02;;;3.20;;
41629;SDS011;27322;49.488;8.480;2024-01-07T05:56:49;5.55;;;2.60;;
41629;SDS011;27322;49.488;8.480;2024-01-07T05:59:14;8.65;;;2.88;;
41629;SDS011;27322;49.488;8.480;2024-01-07T06:01:40;7.50;;;3.13;;
41629;SDS011;27322;49.488;8.480;2024-01-07T06:04:05;6.25;;;2.80;;
41629;SDS011;27322;49.488;8.480;2024-01-07T06:06:31;8.52;;;3.47;;
41629;SDS011;27322;49.488;8.480;2024-01-07T06:08:58;7.28;;;2.80;;
41629;SDS011;27322;49.488;8.480;2024-01-07T06:11:24;6.22;;;3.00;;
41629;SDS011;27322;49.488;8.480;2024-01-07T06:13:50;7.53;;;3.33;;
41629;SDS011;27322;49.488;8.480;2024-01-07T06:16:15;9.82;;;3.45;;
41629;SDS011;27322;49.488;8.480;2024-01-07T06:18:41;8.50;;;2.88;;
41629;SDS011;27322;49.488;8.480;2024-01-07T06:21:06;6.85;;;3.05;;
41629;SDS011;27322;49.488;8.480;2024-01-07T06:23:32;7.45;;;3.13;;
41629;SDS011;27322;49.488;8.480;2024-01-07T06:25:58;7.78;;;3.47;;
41629;SDS011;27322;49.488;8.480;2024-01-07T06:28:24;8.13;;;3.17;;
41629;SDS011;27322;49.488;8.480;2024-01-07T06:30:50;6.90;;;3.40;;
41629;SDS011;27322;49.488;8.480;2024-01-07T06:33:15;7.72;;;3.05;;
41629;SDS011;27322;49.488;8.480;2024-01-07T06:35:41;7.60;;;3.13;;
41629;SDS011;27322;49.488;8.480;2024-01-07T06:38:06;8.68;;;3.58;;
41629;SDS011;27322;49.488;8.480;2024-01-07T06:40:32;7.97;;;3.58;;
41629;SDS011;27322;49.488;8.480;2024-01-07T06:42:57;7.97;;;3.63;;
41629;SDS011;27322;49.488;8.480;2024-01-07T06:45:23;8.57;;;4.13;;
41629;SDS011;27322;49.488;8.480;2024-01-07T06:47:48;9.75;;;4.32;;
41629;SDS011;27322;49.488;8.480;2024-01-07T06:50:14;7.53;;;3.33;;
41629;SDS011;27322;49.488;8.480;2024-01-07T06:52:40;8.77;;;3.50;;
41629;SDS011;27322;49.488;8.480;2024-01-07T06:55:05;7.68;;;3.60;;
41629;SDS011;27322;49.488;8.480;2024-01-07T06:57:32;10.48;;;4.30;;
41629;SDS011;27322;49.488;8.480;2024-01-07T06:59:57;9.13;;;4.20;;
41629;SDS011;27322;49.488;8.480;2024-01-07T07:02:23;8.07;;;3.85;;
41629;SDS011;27322;49.488;8.480;2024-01-07T07:04:48;7.20;;;3.75;;
41629;SDS011;27322;49.488;8.480;2024-01-07T07:07:15;9.38;;;4.22;;
41629;SDS011;27322;49.488;8.480;2024-01-07T07:09:41;9.43;;;4.18;;
41629;SDS011;27322;49.488;8.480;2024-01-07T07:12:08;9.88;;;3.95;;
41629;SDS011;27322;49.488;8.480;2024-01-07T07:14:33;8.27;;;3.92;;
41629;SDS011;27322;49.488;8.480;2024-01-07T07:16:59;10.45;;;4.53;;
41629;SDS011;27322;49.488;8.480;2024-01-07T07:19:25;10.25;;;4.70;;
41629;SDS011;27322;49.488;8.480;2024-01-07T07:21:51;9.02;;;4.30;;
41629;SDS011;27322;49.488;8.480;2024-01-07T07:24:16;9.82;;;4.43;;
41629;SDS011;27322;49.488;8.480;2024-01-07T07:26:42;12.73;;;5.10;;
41629;SDS011;27322;49.488;8.480;2024-01-07T07:29:08;11.55;;;5.13;;
41629;SDS011;27322;49.488;8.480;2024-01-07T07:31:36;9.73;;;4.95;;
41629;SDS011;27322;49.488;8.480;2024-01-07T07:34:05;10.00;;;5.32;;
41629;SDS011;27322;49.488;8.480;2024-01-07T07:36:33;12.25;;;5.25;;
41629;SDS011;27322;49.488;8.480;2024-01-07T07:38:59;10.40;;;4.93;;
41629;SDS011;27322;49.488;8.480;2024-01-07T07:41:24;11.80;;;5.60;;
41629;SDS011;27322;49.488;8.480;2024-01-07T07:43:50;12.38;;;5.13;;
41629;SDS011;27322;49.488;8.480;2024-01-07T07:46:16;12.75;;;5.45;;
41629;SDS011;27322;49.488;8.480;2024-01-07T07:48:41;11.93;;;5.70;;
41629;SDS011;27322;49.488;8.480;2024-01-07T07:51:07;12.13;;;6.03;;
41629;SDS011;27322;49.488;8.480;2024-01-07T07:53:33;12.30;;;5.57;;
41629;SDS011;27322;49.488;8.480;2024-01-07T07:55:58;10.82;;;5.65;;
41629;SDS011;27322;49.488;8.480;2024-01-07T07:58:24;13.68;;;5.70;;
41629;SDS011;27322;49.488;8.480;2024-01-07T08:00:50;11.77;;;6.05;;
41629;SDS011;27322;49.488;8.480;2024-01-07T08:03:15;12.93;;;5.68;;
41629;SDS011;27322;49.488;8.480;2024-01-07T08:05:41;12.45;;;6.10;;
41629;SDS011;27322;49.488;8.480;2024-01-07T08:08:07;13.90;;;6.47;;
41629;SDS011;27322;49.488;8.480;2024-01-07T08:10:33;11.65;;;5.85;;
41629;SDS011;27322;49.488;8.480;2024-01-07T08:13:00;13.25;;;6.57;;
41629;SDS011;27322;49.488;8.480;2024-01-07T08:15:25;11.10;;;5.57;;
41629;SDS011;27322;49.488;8.480;2024-01-07T08:17:51;12.75;;;6.30;;
41629;SDS011;27322;49.488;8.480;2024-01-07T08:20:17;12.75;;;5.63;;
41629;SDS011;27322;49.488;8.480;2024-01-07T08:22:42;14.00;;;6.90;;
41629;SDS011;27322;49.488;8.480;2024-01-07T08:25:08;14.77;;;6.60;;
41629;SDS011;27322;49.488;8.480;2024-01-07T08:27:34;12.93;;;5.97;;
41629;SDS011;27322;49.488;8.480;2024-01-07T08:30:00;12.88;;;6.35;;
41629;SDS011;27322;49.488;8.480;2024-01-07T08:32:26;10.30;;;5.40;;
41629;SDS011;27322;49.488;8.480;2024-01-07T08:34:52;13.00;;;5.88;;
41629;SDS011;27322;49.488;8.480;2024-01-07T08:37:18;15.07;;;5.95;;
41629;SDS011;27322;49.488;8.480;2024-01-07T08:39:43;14.60;;;6.22;;
41629;SDS011;27322;49.488;8.480;2024-01-07T08:42:09;12.35;;;6.25;;
41629;SDS011;27322;49.488;8.480;2024-01-07T08:44:34;13.45;;;6.30;;
41629;SDS011;27322;49.488;8.480;2024-01-07T08:47:00;12.50;;;6.25;;
41629;SDS011;27322;49.488;8.480;2024-01-07T08:49:27;13.02;;;6.22;;
41629;SDS011;27322;49.488;8.480;2024-01-07T08:51:53;10.18;;;5.22;;
41629;SDS011;27322;49.488;8.480;2024-01-07T08:54:20;11.35;;;5.78;;
41629;SDS011;27322;49.488;8.480;2024-01-07T08:56:46;11.80;;;5.53;;
41629;SDS011;27322;49.488;8.480;2024-01-07T08:59:12;11.00;;;5.32;;
41629;SDS011;27322;49.488;8.480;2024-01-07T09:01:38;11.30;;;5.70;;
41629;SDS011;27322;49.488;8.480;2024-01-07T09:04:03;11.52;;;5.50;;
41629;SDS011;27322;49.488;8.480;2024-01-07T09:06:29;11.98;;;5.68;;
41629;SDS011;27322;49.488;8.480;2024-01-07T09:08:54;11.13;;;5.75;;
41629;SDS011;27322;49.488;8.480;2024-01-07T09:11:20;13.00;;;6.20;;
41629;SDS011;27322;49.488;8.480;2024-01-07T09:13:46;11.35;;;5.10;;
41629;SDS011;27322;49.488;8.480;2024-01-07T09:16:13;11.80;;;5.50;;
41629;SDS011;27322;49.488;8.480;2024-01-07T09:18:40;13.25;;;5.43;;
41629;SDS011;27322;49.488;8.480;2024-01-07T09:21:06;12.02;;;5.53;;
41629;SDS011;27322;49.488;8.480;2024-01-07T09:23:31;11.75;;;5.47;;
41629;SDS011;27322;49.488;8.480;2024-01-07T09:25:58;11.93;;;5.20;;
41629;SDS011;27322;49.488;8.480;2024-01-07T09:28:24;12.23;;;5.78;;
41629;SDS011;27322;49.488;8.480;2024-01-07T09:30:50;12.15;;;5.47;;
41629;SDS011;27322;49.488;8.480;2024-01-07T09:33:15;12.38;;;5.32;;
41629;SDS011;27322;49.488;8.480;2024-01-07T09:35:41;10.73;;;5.03;;
41629;SDS011;27322;49.488;8.480;2024-01-07T09:38:08;13.52;;;5.40;;
41629;SDS011;27322;49.488;8.480;2024-01-07T09:40:34;11.55;;;5.30;;
41629;SDS011;27322;49.488;8.480;2024-01-07T09:43:00;10.93;;;4.85;;
41629;SDS011;27322;49.488;8.480;2024-01-07T09:45:25;10.13;;;4.97;;
41629;SDS011;27322;49.488;8.480;2024-01-07T09:47:53;12.57;;;5.80;;
41629;SDS011;27322;49.488;8.480;2024-01-07T09:50:19;11.82;;;5.05;;
41629;SDS011;27322;49.488;8.480;2024-01-07T09:52:45;10.50;;;5.25;;
41629;SDS011;27322;49.488;8.480;2024-01-07T09:55:56;10.70;;;4.97;;
41629;SDS011;27322;49.488;8.480;2024-01-07T09:58:08;10.95;;;5.13;;
41629;SDS011;27322;49.488;8.480;2024-01-07T10:00:34;8.98;;;4.40;;
41629;SDS011;27322;49.488;8.480;2024-01-07T10:03:00;10.85;;;4.95;;
41629;SDS011;27322;49.488;8.480;2024-01-07T10:05:27;10.23;;;4.75;;
41629;SDS011;27322;49.488;8.480;2024-01-07T10:07:53;8.90;;;4.65;;
41629;SDS011;27322;49.488;8.480;2024-01-07T10:10:20;10.85;;;4.50;;
41629;SDS011;27322;49.488;8.480;2024-01-07T10:12:46;10.10;;;4.43;;
41629;SDS011;27322;49.488;8.480;2024-01-07T10:15:12;11.40;;;4.95;;
41629;SDS011;27322;49.488;8.480;2024-01-07T10:17:39;11.57;;;4.60;;
41629;SDS011;27322;49.488;8.480;2024-01-07T10:20:07;11.38;;;5.03;;
41629;SDS011;27322;49.488;8.480;2024-01-07T10:22:36;10.05;;;4.72;;
41629;SDS011;27322;49.488;8.480;2024-01-07T10:25:05;9.00;;;4.22;;
41629;SDS011;27322;49.488;8.480;2024-01-07T10:27:37;9.68;;;4.88;;
41629;SDS011;27322;49.488;8.480;2024-01-07T10:30:03;10.43;;;4.43;;
41629;SDS011;27322;49.488;8.480;2024-01-07T10:32:29;9.77;;;4.60;;
41629;SDS011;27322;49.488;8.480;2024-01-07T10:34:57;12.70;;;4.60;;
41629;SDS011;27322;49.488;8.480;2024-01-07T10:37:32;11.88;;;4.65;;
41629;SDS011;27322;49.488;8.480;2024-01-07T10:39:59;11.32;;;4.57;;
41629;SDS011;27322;49.488;8.480;2024-01-07T10:42:31;9.15;;;3.85;;
41629;SDS011;27322;49.488;8.480;2024-01-07T10:44:57;9.57;;;4.57;;
41629;SDS011;27322;49.488;8.480;2024-01-07T10:47:23;9.95;;;4.00;;
41629;SDS011;27322;49.488;8.480;2024-01-07T10:49:56;8.77;;;4.32;;
41629;SDS011;27322;49.488;8.480;2024-01-07T10:52:23;8.88;;;3.95;;
41629;SDS011;27322;49.488;8.480;2024-01-07T10:54:51;9.55;;;4.10;;
41629;SDS011;27322;49.488;8.480;2024-01-07T10:57:21;8.27;;;3.75;;
41629;SDS011;27322;49.488;8.480;2024-01-07T10:59:57;8.95;;;3.72;;
41629;SDS011;27322;49.488;8.480;2024-01-07T11:02:25;9.57;;;4.07;;
41629;SDS011;27322;49.488;8.480;2024-01-07T11:07:41;7.93;;;3.90;;
41629;SDS011;27322;49.488;8.480;2024-01-07T11:10:20;9.05;;;3.95;;
41629;SDS011;27322;49.488;8.480;2024-01-07T11:12:59;8.18;;;3.92;;
41629;SDS011;27322;49.488;8.480;2024-01-07T11:18:16;9.80;;;4.00;;
41629;SDS011;27322;49.488;8.480;2024-01-07T11:20:43;8.20;;;3.72;;
41629;SDS011;27322;49.488;8.480;2024-01-07T11:25:58;8.52;;;3.42;;
41629;SDS011;27322;49.488;8.480;2024-01-07T11:28:46;8.43;;;3.15;;
41629;SDS011;27322;49.488;8.480;2024-01-07T11:31:21;7.78;;;3.22;;
41629;SDS011;27322;49.488;8.480;2024-01-07T11:34:05;6.80;;;3.45;;
41629;SDS011;27322;49.488;8.480;2024-01-07T11:36:35;6.25;;;3.22;;
41629;SDS011;27322;49.488;8.480;2024-01-07T11:39:01;5.55;;;2.85;;
41629;SDS011;27322;49.488;8.480;2024-01-07T11:41:28;8.30;;;3.78;;
41629;SDS011;27322;49.488;8.480;2024-01-07T11:43:57;6.53;;;2.97;;
41629;SDS011;27322;49.488;8.480;2024-01-07T11:46:24;6.95;;;3.47;;
41629;SDS011;27322;49.488;8.480;2024-01-07T11:48:55;7.93;;;3.15;;
41629;SDS011;27322;49.488;8.480;2024-01-07T11:51:25;6.60;;;2.65;;
41629;SDS011;27322;49.488;8.480;2024-01-07T11:53:51;7.05;;;3.05;;
41629;SDS011;27322;49.488;8.480;2024-01-07T11:56:17;8.40;;;3.45;;
41629;SDS011;27322;49.488;8.480;2024-01-07T11:58:43;8.52;;;3.38;;
41629;SDS011;27322;49.488;8.480;2024-01-07T12:01:09;7.13;;;3.30;;
41629;SDS011;27322;49.488;8.480;2024-01-07T12:03:35;7.20;;;3.28;;
41629;SDS011;27322;49.488;8.480;2024-01-07T12:06:00;5.68;;;2.97;;
41629;SDS011;27322;49.488;8.480;2024-01-07T12:08:26;7.35;;;3.28;;
41629;SDS011;27322;49.488;8.480;2024-01-07T12:10:52;6.32;;;3.00;;
41629;SDS011;27322;49.488;8.480;2024-01-07T12:13:17;7.07;;;3.13;;
41629;SDS011;27322;49.488;8.480;2024-01-07T12:15:45;7.50;;;2.80;;
41629;SDS011;27322;49.488;8.480;2024-01-07T12:18:11;8.32;;;3.33;;
41629;SDS011;27322;49.488;8.480;2024-01-07T12:20:36;8.48;;;3.85;;
41629;SDS011;27322;49.488;8.480;2024-01-07T12:23:06;8.30;;;3.47;;
41629;SDS011;27322;49.488;8.480;2024-01-07T12:25:35;7.00;;;3.33;;
41629;SDS011;27322;49.488;8.480;2024-01-07T12:28:01;7.70;;;3.35;;
41629;SDS011;27322;49.488;8.480;2024-01-07T12:30:27;7.72;;;3.67;;
41629;SDS011;27322;49.488;8.480;2024-01-07T12:32:53;7.80;;;3.42;;
41629;SDS011;27322;49.488;8.480;2024-01-07T12:35:20;6.47;;;3.15;;
41629;SDS011;27322;49.488;8.480;2024-01-07T12:37:45;9.27;;;3.53;;
41629;SDS011;27322;49.488;8.480;2024-01-07T12:40:12;7.25;;;3.08;;
41629;SDS011;27322;49.488;8.480;2024-01-07T12:42:38;8.57;;;3.45;;
41629;SDS011;27322;49.488;8.480;2024-01-07T12:45:09;7.47;;;3.22;;
41629;SDS011;27322;49.488;8.480;2024-01-07T12:47:39;8.50;;;3.67;;
41629;SDS011;27322;49.488;8.480;2024-01-07T12:50:08;6.97;;;3.28;;
41629;SDS011;27322;49.488;8.480;2024-01-07T12:52:37;7.75;;;3.15;;
41629;SDS011;27322;49.488;8.480;2024-01-07T12:55:04;8.63;;;3.53;;
41629;SDS011;27322;49.488;8.480;2024-01-07T12:57:30;7.60;;;3.38;;
41629;SDS011;27322;49.488;8.480;2024-01-07T12:59:56;7.78;;;3.25;;
41629;SDS011;27322;49.488;8.480;2024-01-07T13:02:22;7.55;;;3.53;;
41629;SDS011;27322;49.488;8.480;2024-01-07T13:04:48;8.73;;;4.07;;
41629;SDS011;27322;49.488;8.480;2024-01-07T13:07:14;8.68;;;3.92;;
41629;SDS011;27322;49.488;8.480;2024-01-07T13:09:40;8.43;;;3.90;;
41629;SDS011;27322;49.488;8.480;2024-01-07T13:12:05;7.72;;;3.63;;
41629;SDS011;27322;49.488;8.480;2024-01-07T13:14:31;9.00;;;3.42;;
41629;SDS011;27322;49.488;8.480;2024-01-07T13:16:57;8.10;;;3.70;;
41629;SDS011;27322;49.488;8.480;2024-01-07T13:19:23;7.63;;;3.85;;
41629;SDS011;27322;49.488;8.480;2024-01-07T13:21:49;8.95;;;3.33;;
41629;SDS011;27322;49.488;8.480;2024-01-07T13:24:15;7.60;;;3.35;;
41629;SDS011;27322;49.488;8.480;2024-01-07T13:26:41;9.43;;;3.50;;
41629;SDS011;27322;49.488;8.480;2024-01-07T13:29:07;6.75;;;3.33;;
41629;SDS011;27322;49.488;8.480;2024-01-07T13:31:32;9.75;;;3.80;;
41629;SDS011;27322;49.488;8.480;2024-01-07T13:33:58;9.35;;;3.75;;
41629;SDS011;27322;49.488;8.480;2024-01-07T13:36:23;8.70;;;3.50;;
41629;SDS011;27322;49.488;8.480;2024-01-07T13:38:49;8.40;;;3.60;;
41629;SDS011;27322;49.488;8.480;2024-01-07T13:41:16;7.88;;;3.35;;
41629;SDS011;27322;49.488;8.480;2024-01-07T13:43:42;9.38;;;3.53;;
41629;SDS011;27322;49.488;8.480;2024-01-07T13:46:08;6.85;;;3.20;;
41629;SDS011;27322;49.488;8.480;2024-01-07T13:48:33;9.65;;;3.53;;
41629;SDS011;27322;49.488;8.480;2024-01-07T13:50:59;12.13;;;3.92;;
41629;SDS011;27322;49.488;8.480;2024-01-07T13:53:25;10.43;;;3.70;;
41629;SDS011;27322;49.488;8.480;2024-01-07T13:55:51;8.30;;;3.60;;
41629;SDS011;27322;49.488;8.480;2024-01-07T13:58:17;7.93;;;3.28;;
41629;SDS011;27322;49.488;8.480;2024-01-07T14:00:44;8.40;;;3.83;;
41629;SDS011;27322;49.488;8.480;2024-01-07T14:03:10;10.23;;;3.47;;
41629;SDS011;27322;49.488;8.480;2024-01-07T14:05:36;8.45;;;3.58;;
41629;SDS011;27322;49.488;8.480;2024-01-07T14:08:01;7.70;;;3.50;;
41629;SDS011;27322;49.488;8.480;2024-01-07T14:10:27;9.50;;;3.50;;
41629;SDS011;27322;49.488;8.480;2024-01-07T14:12:54;8.00;;;3.30;;
41629;SDS011;27322;49.488;8.480;2024-01-07T14:15:19;7.88;;;3.50;;
41629;SDS011;27322;49.488;8.480;2024-01-07T14:17:45;7.55;;;3.65;;
41629;SDS011;27322;49.488;8.480;2024-01-07T14:20:10;8.32;;;3.45;;
41629;SDS011;27322;49.488;8.480;2024-01-07T14:22:36;8.23;;;3.22;;
41629;SDS011;27322;49.488;8.480;2024-01-07T14:25:02;8.68;;;3.50;;
41629;SDS011;27322;49.488;8.480;2024-01-07T14:27:28;8.90;;;3.72;;
41629;SDS011;27322;49.488;8.480;2024-01-07T14:29:54;8.27;;;3.22;;
41629;SDS011;27322;49.488;8.480;2024-01-07T14:32:21;7.80;;;3.20;;
41629;SDS011;27322;49.488;8.480;2024-01-07T14:34:47;7.80;;;2.88;;
41629;SDS011;27322;49.488;8.480;2024-01-07T14:37:14;8.60;;;3.63;;
41629;SDS011;27322;49.488;8.480;2024-01-07T14:39:40;8.43;;;3.50;;
41629;SDS011;27322;49.488;8.480;2024-01-07T14:42:06;8.25;;;3.50;;
41629;SDS011;27322;49.488;8.480;2024-01-07T14:44:31;8.57;;;3.53;;
41629;SDS011;27322;49.488;8.480;2024-01-07T14:46:57;7.78;;;3.35;;